createdAt,value
2023-02-17T00:01:14.421Z,4.10
2023-02-17T00:03:42.180Z,4.10
2023-02-17T00:06:11.767Z,4.70
2023-02-17T00:08:38.732Z,4.60
2023-02-17T00:11:06.739Z,3.70
2023-02-17T00:13:34.054Z,3.30
2023-02-17T00:16:08.490Z,4.80
2023-02-17T00:18:36.129Z,3.70
2023-02-17T00:21:16.009Z,2.90
2023-02-17T00:23:44.053Z,3.40
2023-02-17T00:26:11.247Z,3.50
2023-02-17T00:28:38.548Z,4.60
2023-02-17T00:31:07.587Z,4.60
2023-02-17T00:33:35.135Z,4.10
2023-02-17T00:36:07.339Z,4.50
2023-02-17T00:38:34.425Z,4.10
2023-02-17T00:41:01.574Z,4.60
2023-02-17T00:43:31.182Z,3.60
2023-02-17T00:45:58.226Z,4.90
2023-02-17T00:48:25.248Z,3.60
2023-02-17T00:50:52.523Z,4.40
2023-02-17T00:53:19.574Z,4.70
2023-02-17T00:55:46.621Z,3.60
2023-02-17T00:58:13.570Z,3.90
2023-02-17T01:00:40.512Z,4.90
2023-02-17T01:03:07.986Z,4.00
2023-02-17T01:05:40.143Z,4.20
2023-02-17T01:08:07.078Z,3.10
2023-02-17T01:10:37.925Z,3.90
2023-02-17T01:13:05.371Z,5.10
2023-02-17T01:15:33.657Z,3.30
2023-02-17T01:18:00.697Z,3.00
2023-02-17T01:20:27.744Z,4.30
2023-02-17T01:22:54.689Z,4.00
2023-02-17T01:25:21.633Z,4.10
2023-02-17T01:27:48.784Z,4.10
2023-02-17T01:30:15.777Z,3.30
2023-02-17T01:32:42.882Z,3.90
2023-02-17T01:35:09.834Z,4.70
2023-02-17T01:37:36.867Z,3.40
2023-02-17T01:40:04.631Z,4.20
2023-02-17T01:42:31.880Z,4.00
2023-02-17T01:45:17.673Z,3.60
2023-02-17T01:48:25.681Z,3.90
2023-02-17T01:50:53.136Z,3.50
2023-02-17T01:53:29.699Z,3.90
2023-02-17T01:55:57.503Z,3.90
2023-02-17T01:58:26.836Z,3.30
2023-02-17T02:00:57.099Z,2.40
2023-02-17T02:03:24.548Z,2.40
2023-02-17T02:05:51.591Z,2.80
2023-02-17T02:08:18.800Z,3.50
2023-02-17T02:10:46.095Z,3.10
2023-02-17T02:13:13.245Z,3.20
2023-02-17T02:15:52.583Z,3.00
2023-02-17T02:18:25.773Z,3.40
2023-02-17T02:21:16.683Z,5.00
2023-02-17T02:23:53.211Z,3.60
2023-02-17T02:26:54.093Z,3.80
2023-02-17T02:29:38.138Z,4.30
2023-02-17T02:32:17.492Z,3.60
2023-02-17T02:35:20.771Z,3.20
2023-02-17T02:37:52.634Z,3.90
2023-02-17T02:40:24.570Z,3.30
2023-02-17T02:42:51.952Z,3.50
2023-02-17T02:45:19.716Z,3.80
2023-02-17T02:47:52.511Z,3.50
2023-02-17T02:51:01.733Z,4.00
2023-02-17T02:53:59.437Z,3.50
2023-02-17T02:56:36.910Z,2.50
2023-02-17T02:59:29.741Z,2.30
2023-02-17T03:02:00.172Z,2.80
2023-02-17T03:04:36.670Z,2.90
2023-02-17T03:07:21.436Z,3.50
2023-02-17T03:09:54.032Z,3.60
2023-02-17T03:12:22.205Z,3.30
2023-02-17T03:14:53.312Z,3.40
2023-02-17T03:17:20.347Z,3.30
2023-02-17T03:19:50.368Z,3.80
2023-02-17T03:22:29.036Z,4.10
2023-02-17T03:24:56.022Z,3.40
2023-02-17T03:27:23.028Z,3.40
2023-02-17T03:29:49.868Z,3.80
2023-02-17T03:32:18.068Z,4.20
2023-02-17T03:34:45.056Z,3.50
2023-02-17T03:37:12.445Z,3.80
2023-02-17T03:39:39.803Z,4.40
2023-02-17T03:42:06.834Z,3.70
2023-02-17T03:44:33.749Z,3.50
2023-02-17T03:47:00.797Z,4.20
2023-02-17T03:49:27.745Z,3.30
2023-02-17T03:51:54.936Z,3.80
2023-02-17T03:54:21.851Z,3.30
2023-02-17T03:56:48.722Z,2.50
2023-02-17T03:59:15.665Z,2.20
2023-02-17T04:01:42.686Z,2.50
2023-02-17T04:04:09.853Z,3.40
2023-02-17T04:06:37.015Z,2.70
2023-02-17T04:09:04.448Z,3.00
2023-02-17T04:11:31.970Z,3.10
2023-02-17T04:13:58.905Z,3.10
2023-02-17T04:16:25.768Z,3.70
2023-02-17T04:18:52.596Z,2.90
2023-02-17T04:21:19.627Z,3.40
2023-02-17T04:23:46.547Z,3.70
2023-02-17T04:26:13.570Z,3.70
2023-02-17T04:28:42.299Z,4.10
2023-02-17T04:31:10.514Z,3.00
2023-02-17T04:33:38.157Z,4.00
2023-02-17T04:36:05.916Z,4.10
2023-02-17T04:38:34.269Z,3.00
2023-02-17T04:41:01.339Z,3.20
2023-02-17T04:43:28.632Z,3.70
2023-02-17T04:45:55.711Z,5.00
2023-02-17T04:48:23.059Z,3.70
2023-02-17T04:50:49.961Z,3.50
2023-02-17T04:53:16.989Z,3.40
2023-02-17T04:55:44.174Z,3.60
2023-02-17T04:58:11.191Z,3.60
2023-02-17T05:00:38.383Z,3.50
2023-02-17T05:03:05.418Z,2.50
2023-02-17T05:05:32.364Z,3.00
2023-02-17T05:07:59.218Z,2.40
2023-02-17T05:10:26.326Z,2.90
2023-02-17T05:12:53.342Z,2.90
2023-02-17T05:15:20.944Z,3.20
2023-02-17T05:17:47.882Z,3.60
2023-02-17T05:20:14.868Z,3.40
2023-02-17T05:22:41.848Z,3.00
2023-02-17T05:25:08.935Z,3.30
2023-02-17T05:27:35.916Z,3.20
2023-02-17T05:30:03.097Z,3.40
2023-02-17T05:32:30.145Z,2.90
2023-02-17T05:34:57.044Z,4.00
2023-02-17T05:37:23.954Z,3.70
2023-02-17T05:39:50.916Z,4.00
2023-02-17T05:42:17.896Z,3.80
2023-02-17T05:44:45.300Z,3.50
2023-02-17T05:47:12.170Z,3.30
2023-02-17T05:49:39.095Z,3.20
2023-02-17T05:52:06.128Z,3.70
2023-02-17T05:54:33.171Z,3.60
2023-02-17T05:57:00.099Z,4.50
2023-02-17T05:59:27.152Z,3.70
2023-02-17T06:01:54.849Z,3.30
2023-02-17T06:04:21.983Z,4.30
2023-02-17T06:06:48.918Z,3.60
2023-02-17T06:09:15.977Z,3.60
2023-02-17T06:11:42.914Z,4.10
2023-02-17T06:14:09.852Z,3.20
2023-02-17T06:16:36.899Z,2.80
2023-02-17T06:19:05.489Z,2.70
2023-02-17T06:21:32.651Z,3.60
2023-02-17T06:23:59.594Z,3.10
2023-02-17T06:26:26.747Z,3.60
2023-02-17T06:28:54.081Z,3.50
2023-02-17T06:31:21.043Z,3.50
2023-02-17T06:33:48.594Z,4.60
2023-02-17T06:36:15.527Z,3.40
2023-02-17T06:38:42.373Z,3.60
2023-02-17T06:41:09.314Z,3.20
2023-02-17T06:43:36.264Z,3.50
2023-02-17T06:46:03.349Z,3.20
2023-02-17T06:48:33.262Z,4.00
2023-02-17T06:51:01.083Z,6.30
2023-02-17T06:53:28.138Z,4.30
2023-02-17T06:55:55.180Z,9.50
2023-02-17T06:58:22.397Z,6.80
2023-02-17T07:00:49.480Z,5.70
2023-02-17T07:03:16.435Z,6.60
2023-02-17T07:05:43.682Z,7.50
2023-02-17T07:08:10.624Z,6.10
2023-02-17T07:10:38.902Z,6.50
2023-02-17T07:13:05.973Z,8.70
2023-02-17T07:15:32.999Z,11.20
2023-02-17T07:18:02.197Z,5.60
2023-02-17T07:20:29.344Z,7.20
2023-02-17T07:22:56.490Z,4.70
2023-02-17T07:25:23.449Z,7.50
2023-02-17T07:27:50.692Z,9.30
2023-02-17T07:30:18.610Z,9.10
2023-02-17T07:32:45.606Z,6.20
2023-02-17T07:35:13.438Z,6.10
2023-02-17T07:37:40.472Z,6.10
2023-02-17T07:40:08.282Z,5.20
2023-02-17T07:42:35.227Z,6.40
2023-02-17T07:45:03.197Z,4.30
2023-02-17T07:47:30.156Z,6.10
2023-02-17T07:49:57.181Z,5.20
2023-02-17T07:52:24.187Z,5.70
2023-02-17T07:54:51.175Z,4.70
2023-02-17T07:57:18.123Z,3.70
2023-02-17T07:59:47.324Z,7.10
2023-02-17T08:02:14.498Z,4.60
2023-02-17T08:04:43.150Z,4.60
2023-02-17T08:07:10.307Z,5.80
2023-02-17T08:09:56.617Z,3.90
2023-02-17T08:12:42.693Z,5.00
2023-02-17T08:15:11.286Z,4.50
2023-02-17T08:17:38.334Z,5.80
2023-02-17T08:20:09.159Z,5.00
2023-02-17T08:22:37.185Z,5.30
2023-02-17T08:25:06.442Z,3.10
2023-02-17T08:27:33.691Z,3.80
2023-02-17T08:30:00.866Z,3.60
2023-02-17T08:32:28.378Z,3.70
2023-02-17T08:34:57.093Z,4.50
2023-02-17T08:37:24.606Z,5.70
2023-02-17T08:39:51.661Z,4.00
2023-02-17T08:42:19.921Z,5.30
2023-02-17T08:44:47.013Z,4.70
2023-02-17T08:47:14.258Z,4.00
2023-02-17T08:49:41.320Z,3.10
2023-02-17T08:52:08.465Z,5.40
2023-02-17T08:54:35.916Z,5.10
2023-02-17T08:57:03.005Z,5.60
2023-02-17T08:59:30.212Z,5.10
2023-02-17T09:01:57.813Z,6.00
2023-02-17T09:04:25.477Z,3.60
2023-02-17T09:06:56.823Z,3.70
2023-02-17T09:09:27.116Z,3.10
2023-02-17T09:11:56.217Z,4.20
2023-02-17T09:14:26.080Z,4.80
2023-02-17T09:16:54.817Z,4.30
2023-02-17T09:19:22.831Z,3.60
2023-02-17T09:21:49.832Z,4.80
2023-02-17T09:24:18.343Z,4.10
2023-02-17T09:26:45.413Z,3.20
2023-02-17T09:29:12.527Z,5.70
2023-02-17T09:31:40.082Z,4.40
2023-02-17T09:34:07.486Z,4.80
2023-02-17T09:36:40.143Z,3.80
2023-02-17T09:39:08.171Z,5.50
2023-02-17T09:41:41.734Z,3.00
2023-02-17T09:44:20.759Z,4.10
2023-02-17T09:47:03.268Z,5.80
2023-02-17T09:49:39.074Z,4.20
2023-02-17T09:52:15.434Z,4.00
2023-02-17T09:55:05.597Z,3.30
2023-02-17T09:57:46.483Z,2.80
2023-02-17T10:00:18.496Z,5.30
2023-02-17T10:02:57.782Z,3.50
2023-02-17T10:05:30.315Z,3.90
2023-02-17T10:08:06.333Z,3.70
2023-02-17T10:10:45.279Z,3.90
2023-02-17T10:13:18.095Z,4.60
2023-02-17T10:15:49.721Z,4.10
2023-02-17T10:18:25.469Z,4.30
2023-02-17T10:20:58.541Z,5.60
2023-02-17T10:23:28.093Z,6.60
2023-02-17T10:26:07.659Z,5.70
2023-02-17T10:28:37.691Z,6.00
2023-02-17T10:31:12.658Z,4.60
2023-02-17T10:33:57.961Z,4.40
2023-02-17T10:36:34.248Z,4.20
2023-02-17T10:39:06.214Z,4.60
2023-02-17T10:41:36.343Z,4.50
2023-02-17T10:44:09.191Z,3.60
2023-02-17T10:46:36.213Z,5.70
2023-02-17T10:49:05.122Z,3.70
2023-02-17T10:51:33.177Z,4.90
2023-02-17T10:54:06.678Z,3.50
2023-02-17T10:56:44.474Z,4.90
2023-02-17T10:59:35.707Z,3.90
2023-02-17T11:02:20.756Z,6.90
2023-02-17T11:04:55.114Z,5.60
2023-02-17T11:07:42.065Z,7.00
2023-02-17T11:10:29.615Z,5.30
2023-02-17T11:12:58.862Z,7.10
2023-02-17T11:15:43.273Z,5.70
2023-02-17T11:18:19.230Z,6.70
2023-02-17T11:20:46.730Z,5.80
2023-02-17T11:23:16.846Z,7.00
2023-02-17T11:25:54.575Z,5.50
2023-02-17T11:28:26.138Z,5.00
2023-02-17T11:30:59.400Z,7.60
2023-02-17T11:33:40.613Z,6.90
2023-02-17T11:36:13.762Z,7.40
2023-02-17T11:38:40.569Z,5.60
2023-02-17T11:41:08.652Z,7.60
2023-02-17T11:43:36.655Z,9.90
2023-02-17T11:46:15.563Z,14.40
2023-02-17T11:48:54.517Z,9.90
2023-02-17T11:51:30.193Z,12.00
2023-02-17T11:54:26.535Z,14.50
2023-02-17T11:57:04.700Z,11.20
2023-02-17T11:59:36.567Z,12.00
2023-02-17T12:02:06.453Z,10.10
2023-02-17T12:04:38.805Z,12.60
2023-02-17T12:07:23.249Z,11.00
2023-02-17T12:09:57.589Z,10.30
2023-02-17T12:12:37.233Z,9.90
2023-02-17T12:15:22.598Z,10.20
2023-02-17T12:18:05.059Z,9.60
2023-02-17T12:20:42.037Z,9.80
2023-02-17T12:23:17.708Z,9.50
2023-02-17T12:25:59.246Z,10.40
2023-02-17T12:28:34.932Z,8.90
2023-02-17T12:31:20.886Z,9.70
2023-02-17T12:34:05.547Z,10.10
2023-02-17T12:36:36.717Z,9.60
2023-02-17T12:39:11.837Z,11.50
2023-02-17T12:41:49.324Z,9.50
2023-02-17T12:44:21.505Z,8.90
2023-02-17T12:46:53.581Z,5.90
2023-02-17T12:49:44.095Z,5.40
2023-02-17T12:52:18.340Z,7.60
2023-02-17T12:54:51.350Z,8.20
2023-02-17T12:57:47.436Z,6.50
2023-02-17T13:00:20.417Z,10.10
2023-02-17T13:02:48.297Z,7.70
2023-02-17T13:05:29.410Z,5.70
2023-02-17T13:08:10.246Z,6.80
2023-02-17T13:10:40.008Z,9.20
2023-02-17T13:13:11.767Z,7.50
2023-02-17T13:15:43.100Z,6.40
2023-02-17T13:18:28.481Z,6.50
2023-02-17T13:21:00.378Z,7.40
2023-02-17T13:23:37.059Z,6.60
2023-02-17T13:26:24.022Z,7.90
2023-02-17T13:28:53.463Z,6.30
2023-02-17T13:31:23.747Z,6.80
2023-02-17T13:33:56.583Z,6.60
2023-02-17T13:36:29.270Z,6.40
2023-02-17T13:39:05.481Z,8.60
2023-02-17T13:41:46.638Z,5.10
2023-02-17T13:44:19.674Z,6.00
2023-02-17T13:46:47.338Z,4.90
2023-02-17T13:49:24.373Z,6.90
2023-02-17T13:51:51.615Z,4.50
2023-02-17T13:54:22.905Z,6.10
2023-02-17T13:56:54.404Z,4.90
2023-02-17T13:59:26.916Z,5.10
2023-02-17T14:01:57.946Z,4.80
2023-02-17T14:04:30.926Z,4.90
2023-02-17T14:07:00.164Z,7.10
2023-02-17T14:09:33.621Z,6.00
2023-02-17T14:12:06.953Z,5.20
2023-02-17T14:14:37.420Z,4.50
2023-02-17T14:17:15.714Z,6.30
2023-02-17T14:19:48.217Z,4.60
2023-02-17T14:22:31.213Z,4.90
2023-02-17T14:25:04.667Z,6.60
2023-02-17T14:27:51.480Z,4.00
2023-02-17T14:30:30.917Z,4.10
2023-02-17T14:33:06.050Z,5.90
2023-02-17T14:35:35.257Z,4.70
2023-02-17T14:38:32.275Z,4.80
2023-02-17T14:41:01.336Z,5.40
2023-02-17T14:43:28.832Z,7.60
2023-02-17T14:45:56.503Z,5.30
2023-02-17T14:48:27.938Z,3.90
2023-02-17T14:50:57.585Z,5.10
2023-02-17T14:53:30.829Z,5.00
2023-02-17T14:56:04.787Z,4.60
2023-02-17T14:58:32.934Z,6.40
2023-02-17T15:01:02.745Z,4.40
2023-02-17T15:03:29.930Z,4.60
2023-02-17T15:05:57.062Z,4.80
2023-02-17T15:08:34.455Z,4.00
2023-02-17T15:11:02.713Z,5.70
2023-02-17T15:13:31.849Z,4.10
2023-02-17T15:15:59.527Z,4.80
2023-02-17T15:18:28.078Z,7.60
2023-02-17T15:20:55.625Z,3.40
2023-02-17T15:23:26.656Z,3.90
2023-02-17T15:25:56.261Z,5.00
2023-02-17T15:28:23.828Z,14.30
2023-02-17T15:30:54.552Z,3.90
2023-02-17T15:33:24.337Z,4.90
2023-02-17T15:35:55.004Z,4.20
2023-02-17T15:38:23.387Z,5.10
2023-02-17T15:40:51.029Z,4.90
2023-02-17T15:43:22.082Z,5.10
2023-02-17T15:45:49.755Z,3.80
2023-02-17T15:48:24.568Z,5.90
2023-02-17T15:50:53.496Z,6.20
2023-02-17T15:53:20.582Z,3.90
2023-02-17T15:55:48.775Z,4.70
2023-02-17T15:58:22.091Z,6.40
2023-02-17T16:00:50.559Z,3.70
2023-02-17T16:03:18.071Z,7.30
2023-02-17T16:05:45.074Z,5.80
2023-02-17T16:08:12.411Z,9.60
2023-02-17T16:10:42.636Z,7.20
2023-02-17T16:13:14.767Z,4.90
2023-02-17T16:15:42.745Z,4.70
2023-02-17T16:18:28.048Z,5.60
2023-02-17T16:20:54.990Z,6.10
2023-02-17T16:23:22.044Z,6.60
2023-02-17T16:25:50.629Z,6.20
2023-02-17T16:28:21.255Z,6.40
2023-02-17T16:30:49.856Z,5.40
2023-02-17T16:33:17.565Z,8.70
2023-02-17T16:35:45.062Z,6.70
2023-02-17T16:38:22.980Z,4.60
2023-02-17T16:40:53.703Z,7.50
2023-02-17T16:43:24.081Z,7.30
2023-02-17T16:46:00.455Z,3.60
2023-02-17T16:48:32.569Z,6.50
2023-02-17T16:51:00.015Z,5.50
2023-02-17T16:53:27.161Z,7.00
2023-02-17T16:55:55.486Z,6.90
2023-02-17T16:58:25.363Z,4.20
2023-02-17T17:00:54.984Z,5.00
2023-02-17T17:03:25.257Z,6.00
2023-02-17T17:05:53.257Z,8.20
2023-02-17T17:08:24.653Z,4.90
2023-02-17T17:10:53.035Z,5.90
2023-02-17T17:13:22.111Z,5.80
2023-02-17T17:15:49.317Z,6.30
2023-02-17T17:18:22.469Z,7.10
2023-02-17T17:20:50.898Z,8.00
2023-02-17T17:23:18.986Z,8.00
2023-02-17T17:25:47.200Z,5.20
2023-02-17T17:28:19.512Z,8.20
2023-02-17T17:30:47.504Z,5.40
2023-02-17T17:33:15.302Z,5.50
2023-02-17T17:35:42.387Z,4.40
2023-02-17T17:38:14.573Z,4.60
2023-02-17T17:40:52.054Z,5.10
2023-02-17T17:43:21.587Z,7.70
2023-02-17T17:45:50.407Z,5.30
2023-02-17T17:48:18.505Z,4.30
2023-02-17T17:50:49.775Z,4.10
2023-02-17T17:53:16.840Z,5.30
2023-02-17T17:55:43.765Z,6.20
2023-02-17T17:58:10.708Z,5.00
2023-02-17T18:00:37.644Z,4.10
2023-02-17T18:03:05.412Z,4.20
2023-02-17T18:05:32.465Z,4.20
2023-02-17T18:08:00.716Z,6.40
2023-02-17T18:10:27.662Z,4.00
2023-02-17T18:12:54.613Z,5.80
2023-02-17T18:15:22.006Z,6.50
2023-02-17T18:17:49.561Z,4.00
2023-02-17T18:20:16.707Z,4.90
2023-02-17T18:22:44.151Z,7.90
2023-02-17T18:25:11.283Z,6.10
2023-02-17T18:27:40.768Z,7.20
2023-02-17T18:30:09.394Z,10.80
2023-02-17T18:32:36.553Z,4.40
2023-02-17T18:35:05.044Z,6.80
2023-02-17T18:37:33.044Z,8.10
2023-02-17T18:40:01.562Z,8.00
2023-02-17T18:42:28.572Z,5.20
2023-02-17T18:44:56.805Z,6.00
2023-02-17T18:47:26.162Z,7.70
2023-02-17T18:49:53.117Z,4.70
2023-02-17T18:52:20.158Z,6.40
2023-02-17T18:54:47.483Z,5.30
2023-02-17T18:57:15.446Z,5.40
2023-02-17T18:59:43.527Z,5.80
2023-02-17T19:02:12.246Z,6.00
2023-02-17T19:04:39.464Z,6.60
2023-02-17T19:07:08.888Z,5.10
2023-02-17T19:09:39.088Z,6.30
2023-02-17T19:12:14.286Z,8.00
2023-02-17T19:14:42.775Z,8.10
2023-02-17T19:17:12.688Z,4.40
2023-02-17T19:19:42.513Z,5.50
2023-02-17T19:22:22.863Z,5.80
2023-02-17T19:24:54.775Z,6.80
2023-02-17T19:27:25.005Z,7.00
2023-02-17T19:30:00.566Z,4.90
2023-02-17T19:32:28.329Z,5.40
2023-02-17T19:34:55.777Z,5.10
2023-02-17T19:37:22.704Z,5.40
2023-02-17T19:39:49.964Z,5.70
2023-02-17T19:42:17.141Z,7.90
2023-02-17T19:44:44.174Z,7.40
2023-02-17T19:47:11.247Z,5.90
2023-02-17T19:49:38.342Z,6.50
2023-02-17T19:52:06.725Z,4.80
2023-02-17T19:54:33.706Z,6.70
2023-02-17T19:57:00.786Z,6.00
2023-02-17T19:59:27.910Z,5.10
2023-02-17T20:01:54.847Z,7.30
2023-02-17T20:04:21.838Z,5.60
2023-02-17T20:06:49.013Z,7.40
2023-02-17T20:09:20.294Z,12.70
2023-02-17T20:11:48.883Z,6.70
2023-02-17T20:14:16.064Z,11.30
2023-02-17T20:16:43.011Z,7.20
2023-02-17T20:19:10.024Z,6.50
2023-02-17T20:21:38.682Z,5.60
2023-02-17T20:24:06.108Z,6.10
2023-02-17T20:26:38.338Z,6.90
2023-02-17T20:29:05.655Z,6.60
2023-02-17T20:31:34.810Z,8.50
2023-02-17T20:34:05.149Z,4.60
2023-02-17T20:36:33.250Z,7.60
2023-02-17T20:39:01.774Z,7.60
2023-02-17T20:41:29.320Z,5.80
2023-02-17T20:43:56.261Z,4.90
2023-02-17T20:46:28.609Z,4.80
2023-02-17T20:48:56.286Z,4.90
2023-02-17T20:51:23.703Z,4.80
2023-02-17T20:53:51.115Z,6.30
2023-02-17T20:56:21.904Z,3.80
2023-02-17T20:58:49.363Z,5.50
2023-02-17T21:01:16.729Z,5.90
2023-02-17T21:03:43.691Z,4.00
2023-02-17T21:06:22.463Z,5.20
2023-02-17T21:09:01.026Z,5.00
2023-02-17T21:11:29.092Z,4.40
2023-02-17T21:13:56.318Z,5.10
2023-02-17T21:16:27.671Z,6.00
2023-02-17T21:18:54.573Z,4.30
2023-02-17T21:21:21.546Z,4.40
2023-02-17T21:23:48.596Z,5.20
2023-02-17T21:26:16.712Z,4.20
2023-02-17T21:28:44.601Z,5.70
2023-02-17T21:31:12.390Z,5.90
2023-02-17T21:33:42.246Z,5.90
2023-02-17T21:36:11.443Z,5.30
2023-02-17T21:38:38.991Z,4.10
2023-02-17T21:41:08.651Z,4.50
2023-02-17T21:43:54.276Z,4.30
2023-02-17T21:46:22.489Z,4.50
2023-02-17T21:48:51.625Z,4.40
2023-02-17T21:51:19.812Z,5.00
2023-02-17T21:53:47.737Z,4.20
2023-02-17T21:56:15.164Z,5.10
2023-02-17T21:58:52.936Z,4.70
2023-02-17T22:01:21.207Z,5.90
2023-02-17T22:03:48.273Z,4.70
2023-02-17T22:06:19.741Z,4.80
2023-02-17T22:08:47.359Z,4.40
2023-02-17T22:11:20.056Z,4.40
2023-02-17T22:13:47.665Z,4.60
2023-02-17T22:16:15.550Z,4.20
2023-02-17T22:18:42.405Z,3.70
2023-02-17T22:21:12.262Z,4.70
2023-02-17T22:23:40.845Z,5.50
2023-02-17T22:26:15.363Z,4.60
2023-02-17T22:28:42.530Z,4.60
2023-02-17T22:31:13.092Z,4.10
2023-02-17T22:33:40.504Z,4.40
2023-02-17T22:36:10.553Z,4.90
2023-02-17T22:38:37.574Z,7.30
2023-02-17T22:41:07.487Z,4.70
2023-02-17T22:43:40.365Z,4.80
2023-02-17T22:46:09.472Z,6.00
2023-02-17T22:48:37.946Z,4.90
2023-02-17T22:51:06.486Z,4.70
2023-02-17T22:53:34.384Z,4.40
2023-02-17T22:56:01.639Z,3.90
2023-02-17T22:58:29.170Z,5.40
2023-02-17T23:01:06.527Z,4.30
2023-02-17T23:03:34.053Z,5.30
2023-02-17T23:06:23.315Z,4.80
2023-02-17T23:08:50.386Z,5.80
2023-02-17T23:11:40.959Z,4.50
2023-02-17T23:14:08.449Z,4.50
2023-02-17T23:16:35.477Z,4.90
2023-02-17T23:19:06.458Z,4.30
2023-02-17T23:21:33.390Z,5.10
2023-02-17T23:24:00.241Z,4.80
2023-02-17T23:26:27.195Z,5.60
2023-02-17T23:28:54.066Z,4.40
2023-02-17T23:31:21.176Z,5.10
2023-02-17T23:33:48.634Z,4.40
2023-02-17T23:36:16.159Z,5.40
2023-02-17T23:38:43.431Z,5.00
2023-02-17T23:41:10.849Z,4.90
2023-02-17T23:43:37.742Z,4.30
2023-02-17T23:46:06.703Z,4.60
2023-02-17T23:48:34.043Z,5.20
2023-02-17T23:51:05.987Z,4.50
2023-02-17T23:53:34.701Z,6.10
2023-02-17T23:56:04.980Z,4.20
2023-02-17T23:58:33.411Z,4.20
